sensor_id;sensor_type;location;lat;lon;timestamp;P1;durP1;ratioP1;P2;durP2;ratioP2
75766;SDS011;64378;55.596;13.014;2023-02-10T00:01:03;15.23;;;3.33;;
75766;SDS011;64378;55.596;13.014;2023-02-10T00:03:29;14.02;;;3.47;;
75766;SDS011;64378;55.596;13.014;2023-02-10T00:05:55;14.60;;;3.38;;
75766;SDS011;64378;55.596;13.014;2023-02-10T00:08:21;13.23;;;3.13;;
75766;SDS011;64378;55.596;13.014;2023-02-10T00:10:46;13.07;;;3.03;;
75766;SDS011;64378;55.596;13.014;2023-02-10T00:13:11;14.40;;;3.50;;
75766;SDS011;64378;55.596;13.014;2023-02-10T00:15:37;12.47;;;3.33;;
75766;SDS011;64378;55.596;13.014;2023-02-10T00:18:02;12.50;;;3.00;;
75766;SDS011;64378;55.596;13.014;2023-02-10T00:20:28;15.00;;;3.03;;
75766;SDS011;64378;55.596;13.014;2023-02-10T00:22:53;12.63;;;2.90;;
75766;SDS011;64378;55.596;13.014;2023-02-10T00:25:19;15.13;;;3.10;;
75766;SDS011;64378;55.596;13.014;2023-02-10T00:27:44;12.70;;;3.30;;
75766;SDS011;64378;55.596;13.014;2023-02-10T00:30:10;15.30;;;3.27;;
75766;SDS011;64378;55.596;13.014;2023-02-10T00:32:36;13.80;;;2.63;;
75766;SDS011;64378;55.596;13.014;2023-02-10T00:35:02;12.07;;;2.70;;
75766;SDS011;64378;55.596;13.014;2023-02-10T00:37:28;14.27;;;2.53;;
75766;SDS011;64378;55.596;13.014;2023-02-10T00:39:53;14.67;;;3.00;;
75766;SDS011;64378;55.596;13.014;2023-02-10T00:42:20;12.40;;;2.40;;
75766;SDS011;64378;55.596;13.014;2023-02-10T00:44:45;13.57;;;3.05;;
75766;SDS011;64378;55.596;13.014;2023-02-10T00:47:11;13.43;;;2.80;;
75766;SDS011;64378;55.596;13.014;2023-02-10T00:49:36;13.20;;;2.70;;
75766;SDS011;64378;55.596;13.014;2023-02-10T00:52:02;14.07;;;2.77;;
75766;SDS011;64378;55.596;13.014;2023-02-10T00:54:27;13.30;;;2.90;;
75766;SDS011;64378;55.596;13.014;2023-02-10T00:56:53;11.75;;;2.72;;
75766;SDS011;64378;55.596;13.014;2023-02-10T00:59:18;12.67;;;2.73;;
75766;SDS011;64378;55.596;13.014;2023-02-10T01:01:45;13.20;;;2.65;;
75766;SDS011;64378;55.596;13.014;2023-02-10T01:04:11;12.80;;;2.53;;
75766;SDS011;64378;55.596;13.014;2023-02-10T01:06:37;12.80;;;2.50;;
75766;SDS011;64378;55.596;13.014;2023-02-10T01:09:02;12.97;;;2.60;;
75766;SDS011;64378;55.596;13.014;2023-02-10T01:11:28;13.07;;;2.78;;
75766;SDS011;64378;55.596;13.014;2023-02-10T01:13:53;13.83;;;2.63;;
75766;SDS011;64378;55.596;13.014;2023-02-10T01:16:19;13.43;;;3.00;;
75766;SDS011;64378;55.596;13.014;2023-02-10T01:18:44;12.17;;;2.73;;
75766;SDS011;64378;55.596;13.014;2023-02-10T01:21:11;11.70;;;2.80;;
75766;SDS011;64378;55.596;13.014;2023-02-10T01:23:39;13.35;;;2.55;;
75766;SDS011;64378;55.596;13.014;2023-02-10T01:26:04;13.57;;;2.53;;
75766;SDS011;64378;55.596;13.014;2023-02-10T01:28:30;11.95;;;2.55;;
75766;SDS011;64378;55.596;13.014;2023-02-10T01:30:55;12.30;;;2.57;;
75766;SDS011;64378;55.596;13.014;2023-02-10T01:33:21;12.23;;;2.47;;
75766;SDS011;64378;55.596;13.014;2023-02-10T01:35:46;10.63;;;2.13;;
75766;SDS011;64378;55.596;13.014;2023-02-10T01:38:11;13.53;;;2.90;;
75766;SDS011;64378;55.596;13.014;2023-02-10T01:40:37;11.80;;;2.50;;
75766;SDS011;64378;55.596;13.014;2023-02-10T01:43:04;13.07;;;2.30;;
75766;SDS011;64378;55.596;13.014;2023-02-10T01:45:38;12.50;;;2.30;;
75766;SDS011;64378;55.596;13.014;2023-02-10T01:48:03;14.93;;;2.58;;
75766;SDS011;64378;55.596;13.014;2023-02-10T01:50:30;16.45;;;2.70;;
75766;SDS011;64378;55.596;13.014;2023-02-10T01:53:01;11.27;;;2.38;;
75766;SDS011;64378;55.596;13.014;2023-02-10T01:55:28;14.30;;;2.70;;
75766;SDS011;64378;55.596;13.014;2023-02-10T01:57:58;12.70;;;2.65;;
75766;SDS011;64378;55.596;13.014;2023-02-10T02:00:26;13.70;;;2.38;;
75766;SDS011;64378;55.596;13.014;2023-02-10T02:02:51;17.50;;;2.43;;
75766;SDS011;64378;55.596;13.014;2023-02-10T02:05:22;10.82;;;2.25;;
75766;SDS011;64378;55.596;13.014;2023-02-10T02:07:55;11.60;;;2.50;;
75766;SDS011;64378;55.596;13.014;2023-02-10T02:10:24;13.55;;;2.15;;
75766;SDS011;64378;55.596;13.014;2023-02-10T02:13:04;13.65;;;2.20;;
75766;SDS011;64378;55.596;13.014;2023-02-10T02:15:51;11.30;;;2.20;;
75766;SDS011;64378;55.596;13.014;2023-02-10T02:18:36;11.80;;;2.50;;
75766;SDS011;64378;55.596;13.014;2023-02-10T02:21:38;12.63;;;2.78;;
75766;SDS011;64378;55.596;13.014;2023-02-10T02:32:54;12.68;;;2.30;;
75766;SDS011;64378;55.596;13.014;2023-02-10T02:35:26;13.03;;;2.57;;
75766;SDS011;64378;55.596;13.014;2023-02-10T02:37:55;10.55;;;2.15;;
75766;SDS011;64378;55.596;13.014;2023-02-10T02:40:21;12.80;;;2.53;;
75766;SDS011;64378;55.596;13.014;2023-02-10T02:42:46;11.97;;;2.27;;
75766;SDS011;64378;55.596;13.014;2023-02-10T02:45:20;13.50;;;2.70;;
75766;SDS011;64378;55.596;13.014;2023-02-10T02:47:56;11.35;;;2.20;;
75766;SDS011;64378;55.596;13.014;2023-02-10T02:53:16;13.93;;;2.47;;
75766;SDS011;64378;55.596;13.014;2023-02-10T02:59:08;12.27;;;2.40;;
75766;SDS011;64378;55.596;13.014;2023-02-10T03:01:48;12.27;;;2.37;;
75766;SDS011;64378;55.596;13.014;2023-02-10T03:04:19;10.83;;;2.37;;
75766;SDS011;64378;55.596;13.014;2023-02-10T03:06:45;10.50;;;2.13;;
75766;SDS011;64378;55.596;13.014;2023-02-10T03:09:10;12.70;;;2.40;;
75766;SDS011;64378;55.596;13.014;2023-02-10T03:11:36;12.68;;;2.30;;
75766;SDS011;64378;55.596;13.014;2023-02-10T03:14:01;10.95;;;2.40;;
75766;SDS011;64378;55.596;13.014;2023-02-10T03:16:26;13.10;;;2.40;;
75766;SDS011;64378;55.596;13.014;2023-02-10T03:18:52;13.03;;;2.80;;
75766;SDS011;64378;55.596;13.014;2023-02-10T03:21:17;11.93;;;2.27;;
75766;SDS011;64378;55.596;13.014;2023-02-10T03:23:43;13.93;;;2.40;;
75766;SDS011;64378;55.596;13.014;2023-02-10T03:26:08;12.33;;;2.40;;
75766;SDS011;64378;55.596;13.014;2023-02-10T03:28:33;10.73;;;2.30;;
75766;SDS011;64378;55.596;13.014;2023-02-10T03:31:06;15.63;;;2.50;;
75766;SDS011;64378;55.596;13.014;2023-02-10T03:33:32;13.30;;;2.20;;
75766;SDS011;64378;55.596;13.014;2023-02-10T03:35:58;11.43;;;2.00;;
75766;SDS011;64378;55.596;13.014;2023-02-10T03:38:25;12.57;;;2.42;;
75766;SDS011;64378;55.596;13.014;2023-02-10T03:40:51;13.70;;;2.28;;
75766;SDS011;64378;55.596;13.014;2023-02-10T03:43:17;12.02;;;2.13;;
75766;SDS011;64378;55.596;13.014;2023-02-10T03:45:43;12.10;;;2.33;;
75766;SDS011;64378;55.596;13.014;2023-02-10T03:48:08;13.10;;;2.42;;
75766;SDS011;64378;55.596;13.014;2023-02-10T03:50:34;11.27;;;2.20;;
75766;SDS011;64378;55.596;13.014;2023-02-10T03:53:00;13.85;;;2.30;;
75766;SDS011;64378;55.596;13.014;2023-02-10T03:55:26;11.93;;;2.27;;
75766;SDS011;64378;55.596;13.014;2023-02-10T03:57:51;13.47;;;2.47;;
75766;SDS011;64378;55.596;13.014;2023-02-10T04:00:17;11.57;;;2.25;;
75766;SDS011;64378;55.596;13.014;2023-02-10T04:02:42;10.90;;;2.03;;
75766;SDS011;64378;55.596;13.014;2023-02-10T04:05:08;13.33;;;2.47;;
75766;SDS011;64378;55.596;13.014;2023-02-10T04:07:34;11.57;;;2.35;;
75766;SDS011;64378;55.596;13.014;2023-02-10T04:09:59;12.43;;;2.30;;
75766;SDS011;64378;55.596;13.014;2023-02-10T04:12:25;11.30;;;2.50;;
75766;SDS011;64378;55.596;13.014;2023-02-10T04:14:50;10.53;;;2.07;;
75766;SDS011;64378;55.596;13.014;2023-02-10T04:17:15;12.03;;;2.13;;
75766;SDS011;64378;55.596;13.014;2023-02-10T04:19:41;12.03;;;2.30;;
75766;SDS011;64378;55.596;13.014;2023-02-10T04:22:06;12.50;;;2.47;;
75766;SDS011;64378;55.596;13.014;2023-02-10T04:24:31;11.03;;;2.30;;
75766;SDS011;64378;55.596;13.014;2023-02-10T04:26:57;12.40;;;2.30;;
75766;SDS011;64378;55.596;13.014;2023-02-10T04:29:22;12.87;;;2.30;;
75766;SDS011;64378;55.596;13.014;2023-02-10T04:31:48;10.57;;;2.10;;
75766;SDS011;64378;55.596;13.014;2023-02-10T04:34:13;10.88;;;2.13;;
75766;SDS011;64378;55.596;13.014;2023-02-10T04:36:39;11.13;;;2.00;;
75766;SDS011;64378;55.596;13.014;2023-02-10T04:39:04;10.93;;;2.47;;
75766;SDS011;64378;55.596;13.014;2023-02-10T04:41:29;10.33;;;2.00;;
75766;SDS011;64378;55.596;13.014;2023-02-10T04:43:55;10.73;;;2.10;;
75766;SDS011;64378;55.596;13.014;2023-02-10T04:46:20;12.57;;;2.60;;
75766;SDS011;64378;55.596;13.014;2023-02-10T04:48:46;9.57;;;2.20;;
75766;SDS011;64378;55.596;13.014;2023-02-10T04:51:11;11.23;;;2.35;;
75766;SDS011;64378;55.596;13.014;2023-02-10T04:53:38;11.07;;;2.30;;
75766;SDS011;64378;55.596;13.014;2023-02-10T04:56:04;12.77;;;2.20;;
75766;SDS011;64378;55.596;13.014;2023-02-10T04:58:30;11.70;;;2.05;;
75766;SDS011;64378;55.596;13.014;2023-02-10T05:00:56;10.17;;;1.70;;
75766;SDS011;64378;55.596;13.014;2023-02-10T05:03:22;10.87;;;2.47;;
75766;SDS011;64378;55.596;13.014;2023-02-10T05:05:47;10.02;;;2.15;;
75766;SDS011;64378;55.596;13.014;2023-02-10T05:08:12;11.97;;;2.10;;
75766;SDS011;64378;55.596;13.014;2023-02-10T05:10:38;10.33;;;1.93;;
75766;SDS011;64378;55.596;13.014;2023-02-10T05:13:03;10.03;;;2.13;;
75766;SDS011;64378;55.596;13.014;2023-02-10T05:15:29;10.80;;;1.90;;
75766;SDS011;64378;55.596;13.014;2023-02-10T05:17:55;11.63;;;2.33;;
75766;SDS011;64378;55.596;13.014;2023-02-10T05:20:21;9.70;;;1.73;;
75766;SDS011;64378;55.596;13.014;2023-02-10T05:22:46;9.75;;;1.83;;
75766;SDS011;64378;55.596;13.014;2023-02-10T05:25:11;10.87;;;2.03;;
75766;SDS011;64378;55.596;13.014;2023-02-10T05:27:37;11.97;;;2.00;;
75766;SDS011;64378;55.596;13.014;2023-02-10T05:30:04;10.38;;;1.92;;
75766;SDS011;64378;55.596;13.014;2023-02-10T05:32:31;12.77;;;2.10;;
75766;SDS011;64378;55.596;13.014;2023-02-10T05:34:57;11.20;;;1.98;;
75766;SDS011;64378;55.596;13.014;2023-02-10T05:37:22;11.37;;;2.10;;
75766;SDS011;64378;55.596;13.014;2023-02-10T05:39:48;12.97;;;2.30;;
75766;SDS011;64378;55.596;13.014;2023-02-10T05:42:13;10.67;;;1.93;;
75766;SDS011;64378;55.596;13.014;2023-02-10T05:44:38;10.90;;;1.83;;
75766;SDS011;64378;55.596;13.014;2023-02-10T05:47:04;13.10;;;2.10;;
75766;SDS011;64378;55.596;13.014;2023-02-10T05:49:29;9.70;;;1.67;;
75766;SDS011;64378;55.596;13.014;2023-02-10T05:51:54;10.00;;;1.90;;
75766;SDS011;64378;55.596;13.014;2023-02-10T05:54:20;8.40;;;1.70;;
75766;SDS011;64378;55.596;13.014;2023-02-10T05:56:45;9.37;;;1.63;;
75766;SDS011;64378;55.596;13.014;2023-02-10T05:59:12;8.98;;;1.77;;
75766;SDS011;64378;55.596;13.014;2023-02-10T06:01:40;10.93;;;2.00;;
75766;SDS011;64378;55.596;13.014;2023-02-10T06:04:06;10.32;;;1.92;;
75766;SDS011;64378;55.596;13.014;2023-02-10T06:06:31;13.07;;;2.10;;
75766;SDS011;64378;55.596;13.014;2023-02-10T06:08:56;10.67;;;1.83;;
75766;SDS011;64378;55.596;13.014;2023-02-10T06:11:22;8.43;;;1.60;;
75766;SDS011;64378;55.596;13.014;2023-02-10T06:13:47;12.03;;;2.17;;
75766;SDS011;64378;55.596;13.014;2023-02-10T06:16:13;11.67;;;2.10;;
75766;SDS011;64378;55.596;13.014;2023-02-10T06:18:38;11.33;;;2.17;;
75766;SDS011;64378;55.596;13.014;2023-02-10T06:21:03;10.57;;;1.90;;
75766;SDS011;64378;55.596;13.014;2023-02-10T06:23:29;10.85;;;1.90;;
75766;SDS011;64378;55.596;13.014;2023-02-10T06:25:54;11.83;;;2.07;;
75766;SDS011;64378;55.596;13.014;2023-02-10T06:28:22;11.75;;;2.08;;
75766;SDS011;64378;55.596;13.014;2023-02-10T06:30:47;10.23;;;1.80;;
75766;SDS011;64378;55.596;13.014;2023-02-10T06:33:13;12.67;;;2.10;;
75766;SDS011;64378;55.596;13.014;2023-02-10T06:35:38;11.13;;;1.93;;
75766;SDS011;64378;55.596;13.014;2023-02-10T06:38:04;10.52;;;1.90;;
75766;SDS011;64378;55.596;13.014;2023-02-10T06:40:29;11.32;;;1.80;;
75766;SDS011;64378;55.596;13.014;2023-02-10T06:42:54;11.07;;;1.90;;
75766;SDS011;64378;55.596;13.014;2023-02-10T06:45:20;11.50;;;2.03;;
75766;SDS011;64378;55.596;13.014;2023-02-10T06:47:45;10.03;;;1.90;;
75766;SDS011;64378;55.596;13.014;2023-02-10T06:50:11;10.47;;;2.00;;
75766;SDS011;64378;55.596;13.014;2023-02-10T06:52:37;9.23;;;1.70;;
75766;SDS011;64378;55.596;13.014;2023-02-10T06:55:03;10.83;;;1.83;;
75766;SDS011;64378;55.596;13.014;2023-02-10T06:57:30;13.20;;;2.03;;
75766;SDS011;64378;55.596;13.014;2023-02-10T06:59:56;9.10;;;1.80;;
75766;SDS011;64378;55.596;13.014;2023-02-10T07:02:21;9.70;;;1.90;;
75766;SDS011;64378;55.596;13.014;2023-02-10T07:04:47;13.47;;;2.30;;
75766;SDS011;64378;55.596;13.014;2023-02-10T07:07:12;11.03;;;1.77;;
75766;SDS011;64378;55.596;13.014;2023-02-10T07:09:38;11.45;;;2.00;;
75766;SDS011;64378;55.596;13.014;2023-02-10T07:12:03;9.83;;;1.80;;
75766;SDS011;64378;55.596;13.014;2023-02-10T07:14:29;11.40;;;1.90;;
75766;SDS011;64378;55.596;13.014;2023-02-10T07:16:54;10.77;;;1.50;;
75766;SDS011;64378;55.596;13.014;2023-02-10T07:19:20;10.17;;;2.00;;
75766;SDS011;64378;55.596;13.014;2023-02-10T07:21:45;9.27;;;1.67;;
75766;SDS011;64378;55.596;13.014;2023-02-10T07:24:10;9.00;;;1.80;;
75766;SDS011;64378;55.596;13.014;2023-02-10T07:26:36;11.13;;;1.77;;
75766;SDS011;64378;55.596;13.014;2023-02-10T07:29:01;9.40;;;1.90;;
75766;SDS011;64378;55.596;13.014;2023-02-10T07:31:27;8.97;;;1.60;;
75766;SDS011;64378;55.596;13.014;2023-02-10T07:33:52;9.53;;;1.73;;
75766;SDS011;64378;55.596;13.014;2023-02-10T07:36:18;10.53;;;1.93;;
75766;SDS011;64378;55.596;13.014;2023-02-10T07:38:43;8.67;;;1.80;;
75766;SDS011;64378;55.596;13.014;2023-02-10T07:41:08;9.07;;;1.80;;
75766;SDS011;64378;55.596;13.014;2023-02-10T07:43:34;10.27;;;1.73;;
75766;SDS011;64378;55.596;13.014;2023-02-10T07:45:59;11.10;;;1.75;;
75766;SDS011;64378;55.596;13.014;2023-02-10T07:48:25;9.97;;;2.00;;
75766;SDS011;64378;55.596;13.014;2023-02-10T07:50:51;11.93;;;1.98;;
75766;SDS011;64378;55.596;13.014;2023-02-10T07:53:17;11.80;;;1.87;;
75766;SDS011;64378;55.596;13.014;2023-02-10T07:55:45;10.60;;;2.08;;
75766;SDS011;64378;55.596;13.014;2023-02-10T07:58:10;10.80;;;2.00;;
75766;SDS011;64378;55.596;13.014;2023-02-10T08:00:35;9.10;;;1.70;;
75766;SDS011;64378;55.596;13.014;2023-02-10T08:03:01;12.83;;;2.40;;
75766;SDS011;64378;55.596;13.014;2023-02-10T08:05:26;8.50;;;1.83;;
75766;SDS011;64378;55.596;13.014;2023-02-10T08:07:53;12.05;;;1.90;;
75766;SDS011;64378;55.596;13.014;2023-02-10T08:10:19;10.83;;;1.90;;
75766;SDS011;64378;55.596;13.014;2023-02-10T08:12:45;10.00;;;1.50;;
75766;SDS011;64378;55.596;13.014;2023-02-10T08:15:11;8.82;;;1.52;;
75766;SDS011;64378;55.596;13.014;2023-02-10T08:17:36;9.03;;;1.67;;
75766;SDS011;64378;55.596;13.014;2023-02-10T08:20:03;9.90;;;1.80;;
75766;SDS011;64378;55.596;13.014;2023-02-10T08:22:33;8.45;;;1.70;;
75766;SDS011;64378;55.596;13.014;2023-02-10T08:24:59;8.85;;;1.60;;
75766;SDS011;64378;55.596;13.014;2023-02-10T08:27:25;9.97;;;1.60;;
75766;SDS011;64378;55.596;13.014;2023-02-10T08:29:50;10.67;;;1.80;;
75766;SDS011;64378;55.596;13.014;2023-02-10T08:32:16;10.25;;;1.48;;
75766;SDS011;64378;55.596;13.014;2023-02-10T08:34:44;10.48;;;1.60;;
75766;SDS011;64378;55.596;13.014;2023-02-10T08:37:11;10.17;;;1.83;;
75766;SDS011;64378;55.596;13.014;2023-02-10T08:39:37;9.07;;;1.50;;
75766;SDS011;64378;55.596;13.014;2023-02-10T08:42:02;10.20;;;1.70;;
75766;SDS011;64378;55.596;13.014;2023-02-10T08:44:28;9.43;;;1.80;;
75766;SDS011;64378;55.596;13.014;2023-02-10T08:46:54;10.60;;;2.00;;
75766;SDS011;64378;55.596;13.014;2023-02-10T08:49:19;9.17;;;1.63;;
75766;SDS011;64378;55.596;13.014;2023-02-10T08:51:45;9.73;;;1.80;;
75766;SDS011;64378;55.596;13.014;2023-02-10T08:54:11;10.02;;;1.98;;
75766;SDS011;64378;55.596;13.014;2023-02-10T08:56:36;9.37;;;1.90;;
75766;SDS011;64378;55.596;13.014;2023-02-10T08:59:02;9.70;;;1.60;;
75766;SDS011;64378;55.596;13.014;2023-02-10T09:01:27;9.48;;;1.98;;
75766;SDS011;64378;55.596;13.014;2023-02-10T09:03:53;8.83;;;1.43;;
75766;SDS011;64378;55.596;13.014;2023-02-10T09:06:24;8.50;;;1.60;;
75766;SDS011;64378;55.596;13.014;2023-02-10T09:08:53;8.63;;;1.50;;
75766;SDS011;64378;55.596;13.014;2023-02-10T09:11:19;9.70;;;1.60;;
75766;SDS011;64378;55.596;13.014;2023-02-10T09:13:47;9.43;;;1.58;;
75766;SDS011;64378;55.596;13.014;2023-02-10T09:16:13;8.03;;;1.50;;
75766;SDS011;64378;55.596;13.014;2023-02-10T09:18:38;9.27;;;1.60;;
75766;SDS011;64378;55.596;13.014;2023-02-10T09:21:03;9.57;;;1.57;;
75766;SDS011;64378;55.596;13.014;2023-02-10T09:23:29;8.20;;;1.60;;
75766;SDS011;64378;55.596;13.014;2023-02-10T09:25:55;6.80;;;1.50;;
75766;SDS011;64378;55.596;13.014;2023-02-10T09:28:22;6.00;;;1.30;;
75766;SDS011;64378;55.596;13.014;2023-02-10T09:30:47;8.75;;;1.52;;
75766;SDS011;64378;55.596;13.014;2023-02-10T09:33:13;8.40;;;1.70;;
75766;SDS011;64378;55.596;13.014;2023-02-10T09:35:39;9.57;;;1.40;;
75766;SDS011;64378;55.596;13.014;2023-02-10T09:38:05;8.60;;;1.70;;
75766;SDS011;64378;55.596;13.014;2023-02-10T09:40:32;10.25;;;1.70;;
75766;SDS011;64378;55.596;13.014;2023-02-10T09:45:39;8.00;;;1.60;;
75766;SDS011;64378;55.596;13.014;2023-02-10T09:48:21;8.45;;;1.60;;
75766;SDS011;64378;55.596;13.014;2023-02-10T09:53:29;7.85;;;1.60;;
75766;SDS011;64378;55.596;13.014;2023-02-10T09:55:56;8.68;;;1.70;;
75766;SDS011;64378;55.596;13.014;2023-02-10T09:58:34;8.75;;;1.63;;
75766;SDS011;64378;55.596;13.014;2023-02-10T10:03:48;8.10;;;1.57;;
75766;SDS011;64378;55.596;13.014;2023-02-10T10:06:26;9.55;;;1.60;;
75766;SDS011;64378;55.596;13.014;2023-02-10T10:11:40;8.20;;;1.65;;
75766;SDS011;64378;55.596;13.014;2023-02-10T10:14:14;7.32;;;1.50;;
75766;SDS011;64378;55.596;13.014;2023-02-10T10:16:48;8.20;;;1.65;;
75766;SDS011;64378;55.596;13.014;2023-02-10T10:27:32;8.10;;;1.70;;
75766;SDS011;64378;55.596;13.014;2023-02-10T10:30:18;8.15;;;1.60;;
75766;SDS011;64378;55.596;13.014;2023-02-10T10:33:10;9.05;;;1.77;;
75766;SDS011;64378;55.596;13.014;2023-02-10T10:35:45;8.68;;;1.83;;
75766;SDS011;64378;55.596;13.014;2023-02-10T10:38:14;9.17;;;1.53;;
75766;SDS011;64378;55.596;13.014;2023-02-10T10:40:44;7.68;;;1.52;;
75766;SDS011;64378;55.596;13.014;2023-02-10T10:43:17;8.07;;;1.80;;
75766;SDS011;64378;55.596;13.014;2023-02-10T10:45:49;7.55;;;1.60;;
75766;SDS011;64378;55.596;13.014;2023-02-10T10:50:52;8.10;;;1.73;;
75766;SDS011;64378;55.596;13.014;2023-02-10T10:53:37;8.27;;;1.60;;
75766;SDS011;64378;55.596;13.014;2023-02-10T10:56:12;7.93;;;1.83;;
75766;SDS011;64378;55.596;13.014;2023-02-10T10:58:39;8.82;;;1.77;;
75766;SDS011;64378;55.596;13.014;2023-02-10T11:01:10;7.83;;;1.70;;
75766;SDS011;64378;55.596;13.014;2023-02-10T11:03:37;7.17;;;1.43;;
75766;SDS011;64378;55.596;13.014;2023-02-10T11:06:04;8.27;;;1.70;;
75766;SDS011;64378;55.596;13.014;2023-02-10T11:08:35;7.93;;;1.63;;
75766;SDS011;64378;55.596;13.014;2023-02-10T11:11:04;8.52;;;1.90;;
75766;SDS011;64378;55.596;13.014;2023-02-10T11:13:34;10.97;;;2.20;;
75766;SDS011;64378;55.596;13.014;2023-02-10T11:16:03;10.23;;;1.55;;
75766;SDS011;64378;55.596;13.014;2023-02-10T11:18:31;9.10;;;1.80;;
75766;SDS011;64378;55.596;13.014;2023-02-10T11:21:02;10.03;;;2.10;;
75766;SDS011;64378;55.596;13.014;2023-02-10T11:23:35;9.23;;;1.50;;
75766;SDS011;64378;55.596;13.014;2023-02-10T11:26:21;7.80;;;1.70;;
75766;SDS011;64378;55.596;13.014;2023-02-10T11:28:48;9.57;;;1.92;;
75766;SDS011;64378;55.596;13.014;2023-02-10T11:31:22;8.00;;;1.80;;
75766;SDS011;64378;55.596;13.014;2023-02-10T11:34:37;8.10;;;1.83;;
75766;SDS011;64378;55.596;13.014;2023-02-10T11:36:41;7.90;;;1.50;;
75766;SDS011;64378;55.596;13.014;2023-02-10T11:39:25;8.32;;;1.90;;
75766;SDS011;64378;55.596;13.014;2023-02-10T11:41:55;8.13;;;1.70;;
75766;SDS011;64378;55.596;13.014;2023-02-10T11:46:55;7.83;;;1.67;;
75766;SDS011;64378;55.596;13.014;2023-02-10T11:49:22;7.25;;;1.50;;
75766;SDS011;64378;55.596;13.014;2023-02-10T11:51:54;7.83;;;1.60;;
75766;SDS011;64378;55.596;13.014;2023-02-10T11:54:21;7.57;;;1.75;;
75766;SDS011;64378;55.596;13.014;2023-02-10T12:05:14;8.27;;;1.60;;
75766;SDS011;64378;55.596;13.014;2023-02-10T12:10:17;7.53;;;1.43;;
75766;SDS011;64378;55.596;13.014;2023-02-10T12:16:30;7.75;;;1.60;;
75766;SDS011;64378;55.596;13.014;2023-02-10T12:19:18;8.20;;;1.60;;
75766;SDS011;64378;55.596;13.014;2023-02-10T12:22:05;8.10;;;1.75;;
75766;SDS011;64378;55.596;13.014;2023-02-10T12:24:58;6.38;;;1.40;;
75766;SDS011;64378;55.596;13.014;2023-02-10T12:27:29;8.55;;;1.75;;
75766;SDS011;64378;55.596;13.014;2023-02-10T12:30:24;8.27;;;1.73;;
75766;SDS011;64378;55.596;13.014;2023-02-10T12:35:48;8.80;;;1.80;;
75766;SDS011;64378;55.596;13.014;2023-02-10T12:38:27;8.60;;;1.75;;
75766;SDS011;64378;55.596;13.014;2023-02-10T12:41:09;7.63;;;1.73;;
75766;SDS011;64378;55.596;13.014;2023-02-10T12:44:12;9.33;;;1.80;;
75766;SDS011;64378;55.596;13.014;2023-02-10T12:49:34;8.77;;;1.90;;
75766;SDS011;64378;55.596;13.014;2023-02-10T12:52:22;9.10;;;1.70;;
75766;SDS011;64378;55.596;13.014;2023-02-10T12:54:55;10.27;;;2.28;;
75766;SDS011;64378;55.596;13.014;2023-02-10T12:57:29;11.05;;;2.40;;
75766;SDS011;64378;55.596;13.014;2023-02-10T13:00:48;9.77;;;2.43;;
75766;SDS011;64378;55.596;13.014;2023-02-10T13:03:08;9.43;;;2.53;;
75766;SDS011;64378;55.596;13.014;2023-02-10T13:05:42;9.13;;;2.00;;
75766;SDS011;64378;55.596;13.014;2023-02-10T13:08:14;9.73;;;2.43;;
75766;SDS011;64378;55.596;13.014;2023-02-10T13:10:46;10.43;;;2.50;;
75766;SDS011;64378;55.596;13.014;2023-02-10T13:13:19;9.23;;;2.27;;
75766;SDS011;64378;55.596;13.014;2023-02-10T13:15:53;11.02;;;2.50;;
75766;SDS011;64378;55.596;13.014;2023-02-10T13:18:31;12.65;;;2.65;;
75766;SDS011;64378;55.596;13.014;2023-02-10T13:21:17;9.43;;;2.50;;
75766;SDS011;64378;55.596;13.014;2023-02-10T13:24:34;10.43;;;2.33;;
75766;SDS011;64378;55.596;13.014;2023-02-10T13:34:52;11.98;;;2.30;;
75766;SDS011;64378;55.596;13.014;2023-02-10T13:39:55;10.73;;;2.30;;
75766;SDS011;64378;55.596;13.014;2023-02-10T13:42:36;10.55;;;2.25;;
75766;SDS011;64378;55.596;13.014;2023-02-10T13:45:04;12.30;;;2.40;;
75766;SDS011;64378;55.596;13.014;2023-02-10T14:00:27;9.98;;;2.10;;
75766;SDS011;64378;55.596;13.014;2023-02-10T14:08:36;9.70;;;1.83;;
75766;SDS011;64378;55.596;13.014;2023-02-10T14:13:41;8.30;;;1.80;;
75766;SDS011;64378;55.596;13.014;2023-02-10T14:18:39;10.07;;;1.92;;
75766;SDS011;64378;55.596;13.014;2023-02-10T14:21:12;9.10;;;2.03;;
75766;SDS011;64378;55.596;13.014;2023-02-10T14:23:47;9.52;;;2.13;;
75766;SDS011;64378;55.596;13.014;2023-02-10T14:26:22;11.35;;;2.30;;
75766;SDS011;64378;55.596;13.014;2023-02-10T14:28:55;9.25;;;2.03;;
75766;SDS011;64378;55.596;13.014;2023-02-10T14:31:33;9.57;;;2.10;;
75766;SDS011;64378;55.596;13.014;2023-02-10T14:34:04;10.23;;;2.00;;
75766;SDS011;64378;55.596;13.014;2023-02-10T14:36:49;10.50;;;1.80;;
75766;SDS011;64378;55.596;13.014;2023-02-10T14:39:29;9.30;;;1.80;;
75766;SDS011;64378;55.596;13.014;2023-02-10T14:41:58;9.23;;;1.80;;
75766;SDS011;64378;55.596;13.014;2023-02-10T14:44:30;9.57;;;1.97;;
75766;SDS011;64378;55.596;13.014;2023-02-10T14:46:57;9.00;;;1.80;;
75766;SDS011;64378;55.596;13.014;2023-02-10T14:49:23;10.32;;;2.00;;
75766;SDS011;64378;55.596;13.014;2023-02-10T14:51:51;9.47;;;1.67;;
75766;SDS011;64378;55.596;13.014;2023-02-10T14:54:18;9.18;;;2.00;;
75766;SDS011;64378;55.596;13.014;2023-02-10T14:56:55;8.23;;;2.00;;
75766;SDS011;64378;55.596;13.014;2023-02-10T15:01:58;9.80;;;2.00;;
75766;SDS011;64378;55.596;13.014;2023-02-10T15:04:29;9.13;;;1.98;;
75766;SDS011;64378;55.596;13.014;2023-02-10T15:06:55;8.83;;;1.93;;
75766;SDS011;64378;55.596;13.014;2023-02-10T15:09:23;9.07;;;2.10;;
75766;SDS011;64378;55.596;13.014;2023-02-10T15:11:57;9.38;;;2.03;;
75766;SDS011;64378;55.596;13.014;2023-02-10T15:14:51;9.07;;;2.00;;
75766;SDS011;64378;55.596;13.014;2023-02-10T15:17:25;10.55;;;2.28;;
75766;SDS011;64378;55.596;13.014;2023-02-10T15:20:00;9.90;;;2.00;;
75766;SDS011;64378;55.596;13.014;2023-02-10T15:22:48;9.35;;;2.10;;
75766;SDS011;64378;55.596;13.014;2023-02-10T15:27:51;8.65;;;1.90;;
75766;SDS011;64378;55.596;13.014;2023-02-10T15:30:17;9.73;;;2.07;;
75766;SDS011;64378;55.596;13.014;2023-02-10T15:32:56;10.40;;;2.17;;
75766;SDS011;64378;55.596;13.014;2023-02-10T15:35:24;10.98;;;2.13;;
75766;SDS011;64378;55.596;13.014;2023-02-10T15:37:51;11.80;;;2.20;;
75766;SDS011;64378;55.596;13.014;2023-02-10T15:40:27;9.27;;;1.90;;
75766;SDS011;64378;55.596;13.014;2023-02-10T15:42:57;9.00;;;2.20;;
75766;SDS011;64378;55.596;13.014;2023-02-10T15:45:27;10.60;;;2.00;;
75766;SDS011;64378;55.596;13.014;2023-02-10T15:47:59;10.13;;;2.13;;
75766;SDS011;64378;55.596;13.014;2023-02-10T15:50:32;9.53;;;1.90;;
75766;SDS011;64378;55.596;13.014;2023-02-10T15:52:59;9.88;;;2.00;;
75766;SDS011;64378;55.596;13.014;2023-02-10T15:55:29;10.70;;;2.13;;
75766;SDS011;64378;55.596;13.014;2023-02-10T15:57:56;8.50;;;2.30;;
75766;SDS011;64378;55.596;13.014;2023-02-10T16:00:23;9.90;;;2.17;;
75766;SDS011;64378;55.596;13.014;2023-02-10T16:02:51;9.60;;;2.10;;
75766;SDS011;64378;55.596;13.014;2023-02-10T16:05:17;9.77;;;2.03;;
75766;SDS011;64378;55.596;13.014;2023-02-10T16:07:42;9.18;;;2.22;;
75766;SDS011;64378;55.596;13.014;2023-02-10T16:10:13;10.60;;;2.15;;
75766;SDS011;64378;55.596;13.014;2023-02-10T16:12:41;9.10;;;2.22;;
75766;SDS011;64378;55.596;13.014;2023-02-10T16:15:06;9.30;;;2.10;;